sensor_id;sensor_type;location;lat;lon;timestamp;P1;durP1;ratioP1;P2;durP2;ratioP2
28714;SDS011;15886;49.170;14.572;2023-02-15T00:01:52;62.67;;;23.05;;
28714;SDS011;15886;49.170;14.572;2023-02-15T00:04:28;64.07;;;24.25;;
28714;SDS011;15886;49.170;14.572;2023-02-15T00:07:14;50.53;;;23.55;;
28714;SDS011;15886;49.170;14.572;2023-02-15T00:10:01;62.25;;;25.33;;
28714;SDS011;15886;49.170;14.572;2023-02-15T00:12:35;53.40;;;23.33;;
28714;SDS011;15886;49.170;14.572;2023-02-15T00:15:04;65.68;;;23.33;;
28714;SDS011;15886;49.170;14.572;2023-02-15T00:17:32;84.95;;;26.75;;
28714;SDS011;15886;49.170;14.572;2023-02-15T00:20:01;86.35;;;24.42;;
28714;SDS011;15886;49.170;14.572;2023-02-15T00:22:31;61.78;;;25.30;;
28714;SDS011;15886;49.170;14.572;2023-02-15T00:25:05;88.45;;;22.58;;
28714;SDS011;15886;49.170;14.572;2023-02-15T00:27:33;69.55;;;22.83;;
28714;SDS011;15886;49.170;14.572;2023-02-15T00:32:40;62.67;;;22.10;;
28714;SDS011;15886;49.170;14.572;2023-02-15T00:35:08;65.70;;;21.58;;
28714;SDS011;15886;49.170;14.572;2023-02-15T00:37:38;61.13;;;21.52;;
28714;SDS011;15886;49.170;14.572;2023-02-15T00:40:07;75.88;;;22.60;;
28714;SDS011;15886;49.170;14.572;2023-02-15T00:42:37;76.00;;;22.40;;
28714;SDS011;15886;49.170;14.572;2023-02-15T00:45:05;66.43;;;20.90;;
28714;SDS011;15886;49.170;14.572;2023-02-15T00:47:37;59.20;;;24.45;;
28714;SDS011;15886;49.170;14.572;2023-02-15T00:50:06;93.55;;;24.52;;
28714;SDS011;15886;49.170;14.572;2023-02-15T00:52:37;67.20;;;23.92;;
28714;SDS011;15886;49.170;14.572;2023-02-15T00:55:07;77.53;;;26.38;;
28714;SDS011;15886;49.170;14.572;2023-02-15T00:57:38;61.78;;;24.98;;
28714;SDS011;15886;49.170;14.572;2023-02-15T01:00:11;49.55;;;24.17;;
28714;SDS011;15886;49.170;14.572;2023-02-15T01:02:41;108.10;;;27.70;;
28714;SDS011;15886;49.170;14.572;2023-02-15T01:05:16;69.15;;;27.20;;
28714;SDS011;15886;49.170;14.572;2023-02-15T01:10:38;102.40;;;26.73;;
28714;SDS011;15886;49.170;14.572;2023-02-15T01:13:08;83.50;;;30.27;;
28714;SDS011;15886;49.170;14.572;2023-02-15T01:18:29;62.92;;;25.42;;
28714;SDS011;15886;49.170;14.572;2023-02-15T01:21:09;90.90;;;25.50;;
28714;SDS011;15886;49.170;14.572;2023-02-15T01:23:52;77.20;;;25.63;;
28714;SDS011;15886;49.170;14.572;2023-02-15T01:26:24;91.93;;;26.30;;
28714;SDS011;15886;49.170;14.572;2023-02-15T01:29:00;95.22;;;28.33;;
28714;SDS011;15886;49.170;14.572;2023-02-15T01:31:33;115.18;;;29.58;;
28714;SDS011;15886;49.170;14.572;2023-02-15T01:34:05;80.07;;;28.80;;
28714;SDS011;15886;49.170;14.572;2023-02-15T01:36:42;62.75;;;25.88;;
28714;SDS011;15886;49.170;14.572;2023-02-15T01:39:16;79.68;;;27.02;;
28714;SDS011;15886;49.170;14.572;2023-02-15T01:41:46;69.55;;;27.05;;
28714;SDS011;15886;49.170;14.572;2023-02-15T01:44:40;77.35;;;28.00;;
28714;SDS011;15886;49.170;14.572;2023-02-15T01:47:17;79.25;;;31.98;;
28714;SDS011;15886;49.170;14.572;2023-02-15T01:55:57;79.95;;;27.10;;
28714;SDS011;15886;49.170;14.572;2023-02-15T01:58:32;60.83;;;26.10;;
28714;SDS011;15886;49.170;14.572;2023-02-15T02:01:17;94.15;;;27.00;;
28714;SDS011;15886;49.170;14.572;2023-02-15T02:04:00;84.63;;;27.20;;
28714;SDS011;15886;49.170;14.572;2023-02-15T02:06:52;67.40;;;26.13;;
28714;SDS011;15886;49.170;14.572;2023-02-15T02:09:24;71.10;;;25.08;;
28714;SDS011;15886;49.170;14.572;2023-02-15T02:11:55;88.90;;;26.98;;
28714;SDS011;15886;49.170;14.572;2023-02-15T02:14:25;69.25;;;25.27;;
28714;SDS011;15886;49.170;14.572;2023-02-15T02:23:08;72.28;;;25.48;;
28714;SDS011;15886;49.170;14.572;2023-02-15T02:35:01;92.03;;;25.42;;
28714;SDS011;15886;49.170;14.572;2023-02-15T02:37:55;95.45;;;28.85;;
28714;SDS011;15886;49.170;14.572;2023-02-15T02:40:43;65.85;;;23.92;;
28714;SDS011;15886;49.170;14.572;2023-02-15T02:43:37;93.53;;;26.58;;
28714;SDS011;15886;49.170;14.572;2023-02-15T02:48:55;53.92;;;22.88;;
28714;SDS011;15886;49.170;14.572;2023-02-15T02:51:25;87.72;;;26.27;;
28714;SDS011;15886;49.170;14.572;2023-02-15T02:53:58;60.35;;;24.45;;
28714;SDS011;15886;49.170;14.572;2023-02-15T02:59:12;64.97;;;25.75;;
28714;SDS011;15886;49.170;14.572;2023-02-15T03:04:51;73.78;;;24.38;;
28714;SDS011;15886;49.170;14.572;2023-02-15T03:07:34;111.68;;;26.98;;
28714;SDS011;15886;49.170;14.572;2023-02-15T03:10:06;62.60;;;22.67;;
28714;SDS011;15886;49.170;14.572;2023-02-15T03:12:39;63.72;;;23.20;;
28714;SDS011;15886;49.170;14.572;2023-02-15T03:17:56;41.08;;;17.67;;
28714;SDS011;15886;49.170;14.572;2023-02-15T03:20:35;92.28;;;22.45;;
28714;SDS011;15886;49.170;14.572;2023-02-15T03:23:08;91.55;;;22.77;;
28714;SDS011;15886;49.170;14.572;2023-02-15T03:25:44;85.10;;;22.55;;
28714;SDS011;15886;49.170;14.572;2023-02-15T03:29:08;91.25;;;21.05;;
28714;SDS011;15886;49.170;14.572;2023-02-15T03:31:20;116.95;;;23.35;;
28714;SDS011;15886;49.170;14.572;2023-02-15T03:33:55;132.25;;;24.02;;
28714;SDS011;15886;49.170;14.572;2023-02-15T03:36:39;59.80;;;20.50;;
28714;SDS011;15886;49.170;14.572;2023-02-15T03:41:58;69.90;;;21.87;;
28714;SDS011;15886;49.170;14.572;2023-02-15T03:44:58;96.65;;;22.77;;
28714;SDS011;15886;49.170;14.572;2023-02-15T03:47:39;60.65;;;19.08;;
28714;SDS011;15886;49.170;14.572;2023-02-15T03:50:27;65.55;;;18.13;;
28714;SDS011;15886;49.170;14.572;2023-02-15T03:53:21;63.95;;;18.77;;
28714;SDS011;15886;49.170;14.572;2023-02-15T03:55:54;126.25;;;20.33;;
28714;SDS011;15886;49.170;14.572;2023-02-15T03:58:27;70.53;;;18.70;;
28714;SDS011;15886;49.170;14.572;2023-02-15T04:07:01;92.00;;;19.20;;
28714;SDS011;15886;49.170;14.572;2023-02-15T04:09:30;40.47;;;16.30;;
28714;SDS011;15886;49.170;14.572;2023-02-15T04:12:18;67.20;;;17.75;;
28714;SDS011;15886;49.170;14.572;2023-02-15T04:14:51;55.40;;;16.45;;
28714;SDS011;15886;49.170;14.572;2023-02-15T04:17:38;69.57;;;18.23;;
28714;SDS011;15886;49.170;14.572;2023-02-15T04:20:09;53.00;;;18.10;;
28714;SDS011;15886;49.170;14.572;2023-02-15T04:22:56;81.05;;;18.17;;
28714;SDS011;15886;49.170;14.572;2023-02-15T04:25:51;59.67;;;19.73;;
28714;SDS011;15886;49.170;14.572;2023-02-15T04:28:29;126.90;;;20.80;;
28714;SDS011;15886;49.170;14.572;2023-02-15T04:31:01;85.93;;;20.50;;
28714;SDS011;15886;49.170;14.572;2023-02-15T04:33:30;67.32;;;16.30;;
28714;SDS011;15886;49.170;14.572;2023-02-15T04:36:01;57.15;;;16.77;;
28714;SDS011;15886;49.170;14.572;2023-02-15T04:38:33;58.42;;;15.40;;
28714;SDS011;15886;49.170;14.572;2023-02-15T04:41:07;104.50;;;18.23;;
28714;SDS011;15886;49.170;14.572;2023-02-15T04:43:42;63.80;;;15.93;;
28714;SDS011;15886;49.170;14.572;2023-02-15T04:46:17;37.17;;;13.00;;
28714;SDS011;15886;49.170;14.572;2023-02-15T04:48:48;73.82;;;16.02;;
28714;SDS011;15886;49.170;14.572;2023-02-15T04:51:25;49.08;;;14.52;;
28714;SDS011;15886;49.170;14.572;2023-02-15T04:53:56;51.90;;;14.82;;
28714;SDS011;15886;49.170;14.572;2023-02-15T04:56:30;116.85;;;17.25;;
28714;SDS011;15886;49.170;14.572;2023-02-15T04:59:08;74.80;;;13.80;;
28714;SDS011;15886;49.170;14.572;2023-02-15T05:01:42;56.10;;;15.20;;
28714;SDS011;15886;49.170;14.572;2023-02-15T05:04:16;36.33;;;14.45;;
28714;SDS011;15886;49.170;14.572;2023-02-15T05:06:58;67.63;;;16.65;;
28714;SDS011;15886;49.170;14.572;2023-02-15T05:09:28;43.05;;;13.25;;
28714;SDS011;15886;49.170;14.572;2023-02-15T05:11:57;32.65;;;12.10;;
28714;SDS011;15886;49.170;14.572;2023-02-15T05:14:26;39.63;;;12.75;;
28714;SDS011;15886;49.170;14.572;2023-02-15T05:16:57;43.88;;;12.45;;
28714;SDS011;15886;49.170;14.572;2023-02-15T05:19:31;45.00;;;13.80;;
28714;SDS011;15886;49.170;14.572;2023-02-15T05:22:04;56.83;;;14.68;;
28714;SDS011;15886;49.170;14.572;2023-02-15T05:24:49;54.70;;;14.13;;
28714;SDS011;15886;49.170;14.572;2023-02-15T05:39:49;32.03;;;13.82;;
28714;SDS011;15886;49.170;14.572;2023-02-15T05:49:54;29.38;;;13.70;;
28714;SDS011;15886;49.170;14.572;2023-02-15T05:53:39;35.50;;;12.35;;
28714;SDS011;15886;49.170;14.572;2023-02-15T05:56:29;53.65;;;12.40;;
28714;SDS011;15886;49.170;14.572;2023-02-15T05:58:59;47.67;;;14.40;;
28714;SDS011;15886;49.170;14.572;2023-02-15T06:01:31;35.20;;;15.00;;
28714;SDS011;15886;49.170;14.572;2023-02-15T06:04:02;38.95;;;15.25;;
28714;SDS011;15886;49.170;14.572;2023-02-15T06:06:31;55.80;;;15.82;;
28714;SDS011;15886;49.170;14.572;2023-02-15T06:09:02;36.72;;;14.10;;
28714;SDS011;15886;49.170;14.572;2023-02-15T06:11:30;38.22;;;15.05;;
28714;SDS011;15886;49.170;14.572;2023-02-15T06:13:59;82.88;;;20.30;;
28714;SDS011;15886;49.170;14.572;2023-02-15T06:16:27;39.25;;;15.70;;
28714;SDS011;15886;49.170;14.572;2023-02-15T06:18:55;33.88;;;12.77;;
28714;SDS011;15886;49.170;14.572;2023-02-15T06:21:27;71.57;;;16.80;;
28714;SDS011;15886;49.170;14.572;2023-02-15T06:23:56;57.83;;;16.17;;
28714;SDS011;15886;49.170;14.572;2023-02-15T06:26:24;38.83;;;14.10;;
28714;SDS011;15886;49.170;14.572;2023-02-15T06:28:55;44.80;;;15.75;;
28714;SDS011;15886;49.170;14.572;2023-02-15T06:31:24;45.92;;;15.50;;
28714;SDS011;15886;49.170;14.572;2023-02-15T06:33:52;41.28;;;14.85;;
28714;SDS011;15886;49.170;14.572;2023-02-15T06:36:28;55.13;;;15.82;;
28714;SDS011;15886;49.170;14.572;2023-02-15T06:38:57;48.53;;;16.10;;
28714;SDS011;15886;49.170;14.572;2023-02-15T06:41:25;61.83;;;16.25;;
28714;SDS011;15886;49.170;14.572;2023-02-15T06:43:53;52.13;;;17.50;;
28714;SDS011;15886;49.170;14.572;2023-02-15T06:46:22;62.03;;;17.80;;
28714;SDS011;15886;49.170;14.572;2023-02-15T06:48:51;58.45;;;17.35;;
28714;SDS011;15886;49.170;14.572;2023-02-15T06:51:19;41.10;;;16.95;;
28714;SDS011;15886;49.170;14.572;2023-02-15T06:53:49;42.85;;;14.15;;
28714;SDS011;15886;49.170;14.572;2023-02-15T06:56:17;52.80;;;17.98;;
28714;SDS011;15886;49.170;14.572;2023-02-15T06:58:45;64.10;;;17.33;;
28714;SDS011;15886;49.170;14.572;2023-02-15T07:01:13;56.08;;;18.35;;
28714;SDS011;15886;49.170;14.572;2023-02-15T07:03:41;61.90;;;20.95;;
28714;SDS011;15886;49.170;14.572;2023-02-15T07:06:09;52.72;;;21.73;;
28714;SDS011;15886;49.170;14.572;2023-02-15T07:08:38;38.15;;;15.13;;
28714;SDS011;15886;49.170;14.572;2023-02-15T07:11:07;48.38;;;17.25;;
28714;SDS011;15886;49.170;14.572;2023-02-15T07:13:54;68.43;;;19.25;;
28714;SDS011;15886;49.170;14.572;2023-02-15T07:16:23;46.25;;;17.80;;
28714;SDS011;15886;49.170;14.572;2023-02-15T07:24:45;42.88;;;16.23;;
28714;SDS011;15886;49.170;14.572;2023-02-15T07:40:00;49.20;;;14.85;;
28714;SDS011;15886;49.170;14.572;2023-02-15T07:43:29;60.85;;;13.85;;
28714;SDS011;15886;49.170;14.572;2023-02-15T12:33:41;37.60;;;19.00;;
28714;SDS011;15886;49.170;14.572;2023-02-15T12:52:05;29.77;;;17.95;;
28714;SDS011;15886;49.170;14.572;2023-02-15T12:56:07;39.40;;;22.05;;
28714;SDS011;15886;49.170;14.572;2023-02-15T13:08:11;32.92;;;18.88;;
28714;SDS011;15886;49.170;14.572;2023-02-15T13:11:30;34.03;;;19.27;;
28714;SDS011;15886;49.170;14.572;2023-02-15T13:18:37;36.67;;;19.42;;
28714;SDS011;15886;49.170;14.572;2023-02-15T16:21:49;28.67;;;15.63;;
28714;SDS011;15886;49.170;14.572;2023-02-15T16:35:01;39.00;;;21.40;;
28714;SDS011;15886;49.170;14.572;2023-02-15T16:38:01;35.63;;;19.55;;
28714;SDS011;15886;49.170;14.572;2023-02-15T16:43:49;35.88;;;19.52;;
28714;SDS011;15886;49.170;14.572;2023-02-15T16:49:23;37.08;;;20.67;;
28714;SDS011;15886;49.170;14.572;2023-02-15T16:52:06;41.75;;;21.50;;
28714;SDS011;15886;49.170;14.572;2023-02-15T16:55:01;55.83;;;30.88;;
28714;SDS011;15886;49.170;14.572;2023-02-15T17:02:28;50.65;;;22.70;;
28714;SDS011;15886;49.170;14.572;2023-02-15T17:05:25;39.38;;;22.90;;
28714;SDS011;15886;49.170;14.572;2023-02-15T17:08:16;44.30;;;22.70;;
28714;SDS011;15886;49.170;14.572;2023-02-15T17:13:27;46.35;;;24.33;;
28714;SDS011;15886;49.170;14.572;2023-02-15T17:21:10;41.92;;;21.50;;
28714;SDS011;15886;49.170;14.572;2023-02-15T17:23:48;43.75;;;23.73;;
28714;SDS011;15886;49.170;14.572;2023-02-15T17:26:24;42.70;;;24.15;;
28714;SDS011;15886;49.170;14.572;2023-02-15T17:29:15;45.05;;;24.92;;
28714;SDS011;15886;49.170;14.572;2023-02-15T17:31:52;40.65;;;21.15;;
28714;SDS011;15886;49.170;14.572;2023-02-15T17:41:09;44.72;;;25.27;;
28714;SDS011;15886;49.170;14.572;2023-02-15T17:43:45;42.33;;;22.25;;
28714;SDS011;15886;49.170;14.572;2023-02-15T17:46:14;41.17;;;20.65;;
28714;SDS011;15886;49.170;14.572;2023-02-15T17:48:54;41.88;;;22.25;;
28714;SDS011;15886;49.170;14.572;2023-02-15T17:51:32;38.92;;;19.85;;
28714;SDS011;15886;49.170;14.572;2023-02-15T17:54:10;35.07;;;18.60;;
28714;SDS011;15886;49.170;14.572;2023-02-15T17:56:56;42.58;;;19.35;;
28714;SDS011;15886;49.170;14.572;2023-02-15T17:59:52;40.00;;;20.27;;
28714;SDS011;15886;49.170;14.572;2023-02-15T18:21:49;44.53;;;19.17;;
28714;SDS011;15886;49.170;14.572;2023-02-15T18:25:12;64.85;;;21.98;;
28714;SDS011;15886;49.170;14.572;2023-02-15T18:31:39;48.17;;;20.75;;
28714;SDS011;15886;49.170;14.572;2023-02-15T18:34:21;46.08;;;21.38;;
28714;SDS011;15886;49.170;14.572;2023-02-15T18:39:55;43.47;;;17.85;;
28714;SDS011;15886;49.170;14.572;2023-02-15T18:47:25;51.85;;;18.42;;
28714;SDS011;15886;49.170;14.572;2023-02-15T18:50:00;73.88;;;19.45;;
28714;SDS011;15886;49.170;14.572;2023-02-15T20:52:32;46.40;;;23.23;;
28714;SDS011;15886;49.170;14.572;2023-02-15T21:13:24;48.95;;;20.90;;
28714;SDS011;15886;49.170;14.572;2023-02-15T21:15:57;49.63;;;21.85;;
28714;SDS011;15886;49.170;14.572;2023-02-15T21:18:28;61.22;;;24.45;;
28714;SDS011;15886;49.170;14.572;2023-02-15T21:21:03;54.92;;;20.70;;
28714;SDS011;15886;49.170;14.572;2023-02-15T21:23:42;88.28;;;26.13;;
28714;SDS011;15886;49.170;14.572;2023-02-15T21:26:14;74.10;;;22.48;;
28714;SDS011;15886;49.170;14.572;2023-02-15T21:28:56;98.07;;;24.52;;
28714;SDS011;15886;49.170;14.572;2023-02-15T21:31:30;56.63;;;21.85;;
28714;SDS011;15886;49.170;14.572;2023-02-15T21:34:06;66.22;;;21.95;;
28714;SDS011;15886;49.170;14.572;2023-02-15T21:36:44;65.38;;;22.83;;
28714;SDS011;15886;49.170;14.572;2023-02-15T21:39:35;55.42;;;22.20;;
28714;SDS011;15886;49.170;14.572;2023-02-15T21:42:27;56.08;;;23.55;;
28714;SDS011;15886;49.170;14.572;2023-02-15T21:45:33;74.18;;;24.27;;
28714;SDS011;15886;49.170;14.572;2023-02-15T21:48:43;95.88;;;23.70;;
28714;SDS011;15886;49.170;14.572;2023-02-15T21:51:16;73.65;;;22.35;;
28714;SDS011;15886;49.170;14.572;2023-02-15T21:54:11;82.35;;;26.77;;
28714;SDS011;15886;49.170;14.572;2023-02-15T21:56:46;96.97;;;24.02;;
28714;SDS011;15886;49.170;14.572;2023-02-15T21:59:23;64.72;;;24.75;;
28714;SDS011;15886;49.170;14.572;2023-02-15T22:02:00;106.60;;;26.60;;
28714;SDS011;15886;49.170;14.572;2023-02-15T22:04:29;111.70;;;28.38;;
28714;SDS011;15886;49.170;14.572;2023-02-15T22:07:04;72.47;;;25.05;;
28714;SDS011;15886;49.170;14.572;2023-02-15T22:09:35;93.47;;;25.75;;
28714;SDS011;15886;49.170;14.572;2023-02-15T22:12:16;45.20;;;23.23;;
28714;SDS011;15886;49.170;14.572;2023-02-15T22:17:49;69.30;;;24.45;;
28714;SDS011;15886;49.170;14.572;2023-02-15T22:20:23;94.53;;;23.65;;
28714;SDS011;15886;49.170;14.572;2023-02-15T22:25:37;63.78;;;23.10;;
28714;SDS011;15886;49.170;14.572;2023-02-15T22:31:11;53.85;;;21.75;;
28714;SDS011;15886;49.170;14.572;2023-02-15T22:33:43;62.53;;;22.58;;
28714;SDS011;15886;49.170;14.572;2023-02-15T22:36:23;75.70;;;23.90;;
28714;SDS011;15886;49.170;14.572;2023-02-15T22:39:09;51.05;;;23.73;;
28714;SDS011;15886;49.170;14.572;2023-02-15T22:41:38;47.40;;;22.02;;
28714;SDS011;15886;49.170;14.572;2023-02-15T22:44:08;49.00;;;22.35;;
28714;SDS011;15886;49.170;14.572;2023-02-15T22:46:42;49.03;;;22.35;;
28714;SDS011;15886;49.170;14.572;2023-02-15T22:49:16;50.10;;;21.60;;
28714;SDS011;15886;49.170;14.572;2023-02-15T22:51:47;46.58;;;21.98;;
28714;SDS011;15886;49.170;14.572;2023-02-15T22:54:16;49.53;;;23.02;;
28714;SDS011;15886;49.170;14.572;2023-02-15T22:56:46;46.85;;;21.98;;
28714;SDS011;15886;49.170;14.572;2023-02-15T22:59:26;47.08;;;22.55;;
28714;SDS011;15886;49.170;14.572;2023-02-15T23:01:56;63.22;;;21.02;;
28714;SDS011;15886;49.170;14.572;2023-02-15T23:04:26;47.72;;;21.35;;
28714;SDS011;15886;49.170;14.572;2023-02-15T23:06:56;57.42;;;21.80;;
28714;SDS011;15886;49.170;14.572;2023-02-15T23:09:27;55.60;;;23.13;;
28714;SDS011;15886;49.170;14.572;2023-02-15T23:11:55;58.70;;;22.90;;
28714;SDS011;15886;49.170;14.572;2023-02-15T23:14:35;54.17;;;23.10;;
28714;SDS011;15886;49.170;14.572;2023-02-15T23:17:03;53.30;;;23.13;;
28714;SDS011;15886;49.170;14.572;2023-02-15T23:19:32;73.15;;;23.30;;
28714;SDS011;15886;49.170;14.572;2023-02-15T23:22:00;69.43;;;23.25;;
28714;SDS011;15886;49.170;14.572;2023-02-15T23:24:30;70.22;;;21.58;;
28714;SDS011;15886;49.170;14.572;2023-02-15T23:27:15;58.80;;;23.77;;
28714;SDS011;15886;49.170;14.572;2023-02-15T23:32:59;46.08;;;22.67;;
28714;SDS011;15886;49.170;14.572;2023-02-15T23:35:27;73.68;;;24.48;;
28714;SDS011;15886;49.170;14.572;2023-02-15T23:37:57;103.90;;;26.10;;
28714;SDS011;15886;49.170;14.572;2023-02-15T23:40:25;70.82;;;25.77;;
28714;SDS011;15886;49.170;14.572;2023-02-15T23:43:19;70.03;;;23.80;;
28714;SDS011;15886;49.170;14.572;2023-02-15T23:45:49;63.95;;;23.67;;
28714;SDS011;15886;49.170;14.572;2023-02-15T23:48:37;64.93;;;23.20;;
28714;SDS011;15886;49.170;14.572;2023-02-15T23:51:08;83.82;;;24.50;;
28714;SDS011;15886;49.170;14.572;2023-02-15T23:53:41;98.55;;;26.95;;
28714;SDS011;15886;49.170;14.572;2023-02-15T23:57:00;82.88;;;22.13;;
